Welcome!

Visit our other weather sites:

Template documentation
and downloads

And another site



There are no active watches, warnings or advisories

Select another period ( hide this area )

Units Period Custom range Directly to
Metric English Both
Daily Weekly Monthly Yearly
use both date-selectors for a custom range
previous Day
With this date

WeatherUnderground graphs for this period ( click here )


Daily Summary for Sunday Jan 19 2020
Time Temp. ( °C ) Dew pt. ( °C ) Wind ( km/h ) from Gust ( km/h ) Pressure ( hPa ) Humid.( % ) Rainrate ( cm )
High-3,4 -11,8 25,9 NNW ( 612/1507 ) 32,2 1040,5 64 -
Average-9,2 -16,3 10,5 NNW #76/233 14,8 1036,1 57 -
Low-12,9 -19,1 -   1,6 1033,1 49 -
Daily Tabular details for Sunday Jan 19 2020
Time Temp. ( °C ) Dew pt. ( °C ) Wind ( km/h ) from Gust ( km/h ) Pressure ( hPa ) Humid.( % ) Rainrate ( cm )
00:00 -3,4 -11,8 11,3 WNW 16,1 1033,1 52 -
00:05 -3,7 -12,1 11,3 NW 12,9 1033,1 52 -
00:10 -3,8 -12,1 14,5 NW 16,1 1033,1 53 -
00:15 -3,9 -12,1 14,5 NW 16,1 1033,1 53 -
00:20 -4,1 -12,2 14,5 NNW 19,3 1033,4 53 -
00:25 -4,1 -12,2 14,5 NNW 19,3 1033,4 53 -
00:30 -4,1 -12,3 14,5 NNW 19,3 1033,4 53 -
00:35 -4,2 -12,3 14,5 NNW 16,1 1033,4 53 -
00:40 -4,4 -12,3 12,9 NNW 19,3 1033,4 54 -
00:45 -4,8 -12,5 14,5 NNW 16,1 1033,4 55 -
00:50 -5,1 -12,6 14,5 NNW 16,1 1033,4 56 -
00:55 -5,4 -12,6 12,9 North 16,1 1033,4 57 -
01:00 -5,7 -12,8 14,5 North 19,3 1033,7 57 -
01:05 -5,8 -12,7 14,5 North 19,3 1033,7 58 -
01:10 -5,9 -12,6 12,9 North 16,1 1033,7 59 -
01:15 -6,0 -12,7 11,3 North 16,1 1033,7 59 -
01:20 -6,1 -12,8 14,5 NNE 19,3 1033,7 59 -
01:25 -6,2 -12,9 12,9 NNE 16,1 1033,7 59 -
01:30 -6,4 -12,9 12,9 NNE 16,1 1033,7 60 -
01:35 -6,8 -13,0 11,3 NNE 14,5 1033,7 61 -
01:40 -7,0 -13,3 11,3 NNE 12,9 1033,7 61 -
01:45 -7,1 -13,2 12,9 NNE 14,5 1033,7 62 -
01:50 -7,3 -13,3 12,9 NNE 14,5 1033,7 62 -
01:55 -7,3 -13,6 9,7 NNE 14,5 1034,1 61 -
02:00 -7,5 -13,7 8,0 North 11,3 1034,1 61 -
02:05 -7,7 -13,7 4,8 North 9,7 1034,1 62 -
02:10 -7,7 -13,7 4,8 North 6,4 1034,1 62 -
02:15 -7,7 -13,7 3,2 North 6,4 1034,1 62 -
02:20 -7,8 -13,8 1,6 North 4,8 1034,1 62 -
02:25 -7,8 -13,8 3,2 North 4,8 1034,4 62 -
02:30 -7,7 -13,7 1,6 North 4,8 1034,4 62 -
02:35 -7,7 -13,7 3,2 North 6,4 1034,4 62 -
02:40 -7,8 -13,8 1,6 North 4,8 1034,4 62 -
02:45 -8,1 -13,9 3,2 North 4,8 1034,4 63 -
02:50 -8,1 -14,1 3,2 North 4,8 1034,4 62 -
02:55 -8,2 -14,0 3,2 North 4,8 1034,8 63 -
03:00 -8,5 -14,4 1,6 North 4,8 1034,8 62 -
03:05 -8,4 -14,2 3,2 North 6,4 1034,8 63 -
03:10 -8,4 -14,4 4,8 NW 8,0 1035,1 62 -
03:15 -8,4 -14,6 8,0 NW 8,0 1035,1 61 -
03:20 -8,4 -14,8 11,3 NNW 12,9 1035,1 60 -
03:25 -8,4 -14,8 11,3 NNW 14,5 1035,1 60 -
03:30 -8,5 -15,1 11,3 NNW 12,9 1035,1 59 -
03:35 -8,6 -15,2 9,7 NNW 12,9 1035,1 59 -
03:40 -8,7 -15,3 8,0 NNW 11,3 1035,1 59 -
03:45 -8,8 -15,2 8,0 NNW 9,7 1035,1 60 -
03:50 -8,7 -15,3 3,2 NNW 8,0 1035,4 59 -
03:55 -8,7 -15,3   Calm 4,8 1035,4 59 -
04:00 -8,9 -15,3   Calm 1,6 1035,4 60 -
04:05 -8,8 -15,3 3,2 North 6,4 1035,4 59 -
04:10 -8,7 -15,5 9,7 North 11,3 1035,8 58 -
04:15 -8,7 -15,5 11,3 North 16,1 1035,4 58 -
04:20 -8,7 -15,5 12,9 NNW 19,3 1035,4 58 -
04:25 -8,7 -15,4 12,9 NNW 19,3 1035,4 58 -
04:30 -8,7 -15,4 12,9 NNW 16,1 1035,4 58 -
04:35 -8,7 -15,5 11,3 North 16,1 1035,4 58 -
04:40 -8,9 -15,7 11,3 NNW 14,5 1035,4 58 -
04:45 -9,1 -15,6 11,3 North 12,9 1035,8 59 -
04:50 -9,2 -15,7 9,7 North 12,9 1035,8 59 -
04:55 -9,4 -16,0 4,8 NNE 11,3 1035,8 59 -
05:00 -9,7 -16,1 3,2 NE 8,0 1035,8 60 -
05:05 -9,9 -16,1 1,6 NE 4,8 1035,8 61 -
05:10 -10,0 -16,1 4,8 NE 6,4 1035,8 61 -
05:15 -10,2 -16,1 4,8 NE 8,0 1036,1 62 -
05:20 -10,4 -16,3 4,8 NE 8,0 1036,1 62 -
05:25 -10,7 -16,3 4,8 NE 8,0 1036,5 63 -
05:30 -10,9 -16,3 3,2 NE 6,4 1036,5 64 -
05:35 -10,9 -16,6 4,8 NE 9,7 1036,5 63 -
05:40 -11,1 -16,7 8,0 NE 11,3 1036,5 63 -
05:45 -11,2 -16,8 8,0 NE 11,3 1036,5 63 -
05:50 -11,3 -16,9 8,0 NE 12,9 1036,5 63 -
05:55 -11,4 -17,2 8,0 NE 8,0 1036,5 62 -
06:00 -11,5 -17,2 9,7 NNE 11,3 1036,5 63 -
06:05 -11,7 -17,5 11,3 NNE 12,9 1036,5 62 -
06:10 -11,7 -17,4 11,3 North 12,9 1036,5 63 -
06:15 -11,8 -17,4 11,3 North 14,5 1036,5 63 -
06:20 -12,0 -17,8 9,7 North 12,9 1036,8 62 -
06:25 -12,2 -17,9 9,7 North 11,3 1036,8 62 -
06:30 -12,3 -18,1 8,0 North 11,3 1037,1 62 -
06:35 -12,4 -18,2 11,3 NNE 12,9 1037,1 62 -
06:40 -12,4 -18,2 9,7 North 12,9 1037,1 62 -
06:45 -12,5 -18,3 12,9 North 16,1 1037,1 62 -
06:50 -12,5 -18,3 11,3 North 16,1 1037,1 62 -
06:55 -12,5 -18,1 11,3 North 14,5 1037,1 63 -
07:00 -12,5 -18,1 11,3 North 14,5 1037,5 63 -
07:05 -12,5 -18,3 11,3 North 16,1 1037,5 62 -
07:10 -12,4 -18,2 11,3 North 14,5 1037,5 62 -
07:15 -12,4 -18,2 9,7 North 14,5 1037,5 62 -
07:20 -12,4 -18,2 9,7 North 12,9 1037,8 62 -
07:25 -12,5 -18,3 9,7 North 12,9 1037,8 62 -
07:30 -12,6 -18,4 9,7 North 11,3 1037,8 62 -
07:35 -12,7 -18,4 11,3 North 14,5 1037,8 62 -
07:40 -12,7 -18,4 9,7 North 14,5 1037,8 62 -
07:45 -12,7 -18,5 11,3 North 12,9 1037,8 62 -
07:50 -12,8 -18,6 9,7 NNE 12,9 1037,8 62 -
07:55 -12,8 -18,6 9,7 North 12,9 1038,1 62 -
08:00 -12,9 -18,7 8,0 North 11,3 1038,1 62 -
08:05 -12,9 -18,7 4,8 NNE 8,0 1038,1 62 -
08:10 -12,9 -18,7 4,8 NNE 8,0 1038,5 62 -
08:15 -12,9 -18,7 8,0 NNE 8,0 1038,1 62 -
08:20 -12,9 -18,7 9,7 North 12,9 1038,1 62 -
08:25 -12,8 -18,8 8,0 NNE 11,3 1038,5 61 -
08:30 -12,8 -18,8 9,7 NNE 11,3 1038,5 61 -
08:35 -12,8 -18,8 11,3 NNE 16,1 1038,5 61 -
08:40 -12,8 -18,7 11,3 NNE 16,1 1038,8 61 -
08:45 -12,7 -18,7 11,3 NNE 14,5 1038,8 61 -
08:50 -12,7 -18,6 9,7 North 14,5 1038,8 61 -
08:55 -12,7 -18,6 9,7 NNE 14,5 1039,2 61 -
09:00 -12,6 -18,8 9,7 NNE 14,5 1039,2 60 -
09:05 -12,7 -18,8 12,9 NNE 16,1 1039,2 60 -
09:10 -12,5 -18,9 9,7 NNE 14,5 1039,2 59 -
09:15 -12,5 -19,1 14,5 NNE 19,3 1039,2 58 -
09:20 -12,4 -18,8 12,9 NNE 19,3 1039,2 59 -
09:25 -12,4 -19,0 16,1 North 20,9 1039,2 58 -
09:30 -12,4 -18,8 12,9 NNE 19,3 1039,2 59 -
09:35 -12,3 -18,7 9,7 NNE 19,3 1039,2 59 -
09:40 -12,1 -18,5 19,3 North 24,1 1039,5 59 -
09:45 -12,1 -18,9 14,5 North 24,1 1039,5 57 -
09:50 -11,9 -18,8 16,1 North 22,5 1039,5 57 -
09:55 -11,9 -18,9 16,1 North 22,5 1039,5 56 -
10:00 -11,8 -18,8 16,1 North 20,9 1039,5 56 -
10:05 -11,6 -18,4 12,9 North 20,9 1039,5 57 -
10:10 -11,5 -18,3 11,3 North 16,1 1039,5 57 -
10:15 -11,5 -18,5 12,9 North 19,3 1039,5 56 -
10:20 -11,3 -18,4 14,5 North 20,9 1039,5 56 -
10:25 -11,2 -18,0 12,9 North 20,9 1039,8 57 -
10:30 -11,1 -18,4 19,3 North 27,4 1039,8 55 -
10:35 -10,8 -18,3 25,9 NNW 23,3 1039,8 54 -
10:40 -10,7 -18,4 22,5 NNW 27,4 1039,8 53 -
10:45 -10,7 -18,4 19,3 NNW 27,4 1039,8 53 -
10:50 -10,6 -18,3 20,9 NNW 32,2 1040,2 53 -
10:55 -10,4 -18,2 24,1 North 29,0 1040,2 53 -
11:00 -10,5 -18,5 22,5 NNW 32,2 1040,2 52 -
11:05 -10,5 -18,2 19,3 NNW 32,2 1040,5 53 -
11:10 -10,5 -18,4 22,5 NNW 32,2 1040,5 52 -
11:15 -10,5 -18,5 20,9 NNW 27,4 1040,5 52 -
11:20 -10,1 -17,4 14,5 NNW 25,7 1040,5 55 -
11:25 -10,2 -17,9 16,1 NNW 24,1 1040,5 53 -
11:30 -10,3 -18,3 19,3 NNW 22,5 1040,5 52 -
11:35 -10,2 -17,9 14,5 NNW 22,5 1040,5 53 -
11:40 -10,1 -17,6 12,9 NNW 22,5 1040,5 54 -
11:45 -10,1 -17,9 14,5 NNW 22,5 1040,5 53 -
11:50 -10,0 -18,0 16,1 NNW 25,7 1040,5 52 -
11:55 -10,1 -18,3 19,3 NNW 27,4 1040,5 51 -
12:00 -10,0 -18,2 20,9 NNW 24,1 1040,5 51 -
12:05 -9,9 -17,9 16,1 NNW 24,1 1040,5 52 -
12:10 -9,8 -17,8 16,1 NNW 22,5 1040,5 52 -
12:15 -9,6 -17,3 12,9 NNW 22,5 1040,2 53 -
12:20 -9,4 -17,3 12,9 NNW 24,1 1040,5 53 -
12:25 -9,5 -17,6 16,1 NNW 22,5 1040,5 52 -
12:30 -9,4 -17,4 11,3 NNW 19,3 1040,5 52 -
12:35 -9,4 -17,7 12,9 NNW 22,5 1040,5 51 -
12:40 -9,2 -17,1 14,5 NNW 20,9 1040,5 53 -
12:45 -9,3 -17,1 11,3 NNW 20,9 1040,5 53 -
12:50 -9,1 -17,4 12,9 NW 20,9 1040,2 51 -
12:55 -9,0 -17,1 11,3 NNW 19,3 1040,2 52 -
13:00 -8,9 -17,1 11,3 NNW 19,3 1040,2 52 -
13:05 -8,7 -16,6 14,5 NNW 20,9 1040,2 53 -
13:10 -8,3 -16,5 14,5 NW 19,3 1039,8 52 -
13:15 -8,5 -16,8 14,5 NNW 22,5 1039,8 51 -
13:20 -8,6 -16,7 11,3 NNW 22,5 1039,8 52 -
13:25 -8,6 -16,9 12,9 NW 20,9 1039,5 51 -
13:30 -8,4 -16,8 12,9 NNW 19,3 1039,5 51 -
13:35 -8,5 -16,6 14,5 NNW 19,3 1039,5 52 -
13:40 -8,3 -16,2 11,3 NNW 19,3 1039,2 53 -
13:45 -8,2 -16,1 11,3 NW 19,3 1039,2 53 -
13:50 -8,2 -16,3 11,3 NW 19,3 1039,2 52 -
13:55 -8,2 -16,6 14,5 NNW 20,9 1039,2 51 -
14:00 -8,2 -16,3 12,9 NNW 19,3 1039,2 52 -
14:05 -7,9 -16,6 19,3 NNW 24,1 1038,8 50 -
14:10 -8,1 -16,2 11,3 NNW 24,1 1038,8 52 -
14:15 -8,1 -16,2 11,3 NNW 16,1 1038,8 52 -
14:20 -7,8 -15,8 11,3 NW 16,1 1038,8 53 -
14:25 -7,8 -15,7 12,9 NW 16,1 1038,8 53 -
14:30 -7,8 -15,7 9,7 NW 16,1 1038,5 53 -
14:35 -7,7 -15,9 9,7 NW 14,5 1038,5 52 -
14:40 -7,7 -15,9 9,7 NW 16,1 1038,5 52 -
14:45 -7,7 -15,9 9,7 WNW 16,1 1038,5 52 -
14:50 -7,6 -16,0 9,7 WNW 17,7 1038,5 51 -
14:55 -7,7 -16,1 11,3 WNW 14,5 1038,5 51 -
15:00 -7,8 -16,2 9,7 NW 16,1 1038,5 51 -
15:05 -7,6 -15,5 11,3 NW 16,1 1038,5 53 -
15:10 -7,7 -15,8 9,7 NW 16,1 1038,5 52 -
15:15 -7,6 -16,0 8,0 NW 12,9 1038,1 51 -
15:20 -7,4 -15,9 9,7 NNW 12,9 1038,1 51 -
15:25 -7,4 -15,9 8,0 NNW 12,9 1038,1 51 -
15:30 -7,3 -15,5 3,2 NNW 11,3 1038,1 52 -
15:35 -7,1 -15,8 9,7 NNW 11,3 1038,1 50 -
15:40 -7,2 -15,7 11,3 NNW 12,9 1038,1 51 -
15:45 -6,9 -15,4 9,7 NNW 12,9 1038,1 51 -
15:50 -7,1 -16,0 11,3 NNW 14,5 1038,1 49 -
15:55 -7,1 -15,8 11,3 NNW 16,1 1038,1 50 -
16:00 -7,2 -15,8 12,9 NNW 16,1 1038,1 50 -
16:05 -7,1 -15,6 4,8 NNW 12,9 1038,1 51 -
16:10 -6,8 -15,3 8,0 NNW 9,7 1038,5 51 -
16:15 -6,9 -15,6 8,0 NNW 11,3 1038,5 50 -
16:20 -6,8 -15,0 8,0 NNW 11,3 1038,1 52 -
16:25 -6,9 -15,4 9,7 North 11,3 1038,1 51 -
16:30 -7,0 -15,4 8,0 NNW 14,5 1038,5 51 -
16:35 -7,1 -15,7 8,0 NNW 11,3 1038,5 50 -
16:40 -7,0 -15,2 8,0 NNW 11,3 1038,5 52 -
16:45 -7,1 -15,5 4,8 NNW 11,3 1038,5 51 -
16:50 -7,1 -15,3 3,2 North 8,0 1038,5 52 -
16:55 -7,2 -15,6 8,0 North 9,7 1038,1 51 -
17:00 -7,3 -15,5 8,0 NNW 9,7 1038,1 52 -
17:05 -7,3 -15,5 3,2 NNW 9,7 1038,1 52 -
17:10 -7,4 -15,3 3,2 North 6,4 1038,1 53 -
17:15 -7,4 -15,2 3,2 North 6,4 1038,1 54 -
17:20 -7,6 -15,3 9,7 North 11,3 1038,5 54 -
17:25 -7,7 -15,4 8,0 North 11,3 1038,1 54 -
17:30 -7,8 -15,5 8,0 North 8,0 1038,5 54 -
17:35 -7,8 -15,6 8,0 North 8,0 1038,5 54 -
17:40 -7,9 -15,6 4,8 North 9,7 1038,5 54 -
17:45 -8,0 -15,4 4,8 North 6,4 1038,5 55 -
17:50 -8,1 -15,6 4,8 North 9,7 1038,8 55 -
17:55 -8,2 -15,7 8,0 North 9,7 1038,8 55 -
18:00 -8,5 -15,5 4,8 North 8,0 1038,8 57 -
18:05 -8,5 -15,7 8,0 North 9,7 1038,8 56 -
18:10 -8,6 -15,8 8,0 NNE 8,0 1038,8 56 -
18:15 -8,7 -15,8 8,0 NNE 9,7 1038,8 56 -
18:20 -8,8 -16,0 8,0 NNE 9,7 1038,8 56 -
18:25 -8,8 -16,1 9,7 NNE 11,3 1038,8 56 -
18:30 -8,9 -15,9 8,0 NNE 11,3 1038,8 57 -
18:35 -9,0 -16,0 8,0 NNE 9,7 1039,2 57 -
18:40 -9,2 -15,9 8,0 NNE 9,7 1039,2 58 -
18:45 -9,3 -16,1 4,8 NNE 9,7 1038,8 58 -
18:50 -9,5 -16,2 9,7 NE 9,7 1038,8 58 -
18:55 -9,6 -16,1 8,0 NE 9,7 1039,2 59 -
19:00 -9,6 -16,3 8,0 NE 9,7 1039,2 58 -
19:05 -9,6 -16,2 8,0 ENE 11,3 1039,2 59 -
19:10 -9,7 -16,2 3,2 ENE 8,0 1039,2 59 -
19:15 -9,5 -16,1 4,8 ENE 6,4 1039,2 59 -
19:20 -9,3 -16,1 8,0 ENE 8,0 1039,2 58 -
Daily Summary for Sunday Jan 19 2020
Time Temp. ( °C ) Dew pt. ( °C ) Wind ( km/h ) from Gust ( km/h ) Pressure ( hPa ) Humid.( % ) Rainrate ( cm )
High-3,4 -11,8 25,9 NNW ( 612/1507 ) 32,2 1040,5 64 -
Average-9,2 -16,3 10,5 NNW #76/233 14,8 1036,1 57 -
Low-12,9 -19,1 -   1,6 1033,1 49 -
Daily Tabular details for Sunday Jan 19 2020
Time Temp. ( °C ) Dew pt. ( °C ) Wind ( km/h ) from Gust ( km/h ) Pressure ( hPa ) Humid.( % ) Rainrate ( cm )
00:00 -3,4 -11,8 11,3 WNW 16,1 1033,1 52 -
00:05 -3,7 -12,1 11,3 NW 12,9 1033,1 52 -
00:10 -3,8 -12,1 14,5 NW 16,1 1033,1 53 -
00:15 -3,9 -12,1 14,5 NW 16,1 1033,1 53 -
00:20 -4,1 -12,2 14,5 NNW 19,3 1033,4 53 -
00:25 -4,1 -12,2 14,5 NNW 19,3 1033,4 53 -
00:30 -4,1 -12,3 14,5 NNW 19,3 1033,4 53 -
00:35 -4,2 -12,3 14,5 NNW 16,1 1033,4 53 -
00:40 -4,4 -12,3 12,9 NNW 19,3 1033,4 54 -
00:45 -4,8 -12,5 14,5 NNW 16,1 1033,4 55 -
00:50 -5,1 -12,6 14,5 NNW 16,1 1033,4 56 -
00:55 -5,4 -12,6 12,9 North 16,1 1033,4 57 -
01:00 -5,7 -12,8 14,5 North 19,3 1033,7 57 -
01:05 -5,8 -12,7 14,5 North 19,3 1033,7 58 -
01:10 -5,9 -12,6 12,9 North 16,1 1033,7 59 -
01:15 -6,0 -12,7 11,3 North 16,1 1033,7 59 -
01:20 -6,1 -12,8 14,5 NNE 19,3 1033,7 59 -
01:25 -6,2 -12,9 12,9 NNE 16,1 1033,7 59 -
01:30 -6,4 -12,9 12,9 NNE 16,1 1033,7 60 -
01:35 -6,8 -13,0 11,3 NNE 14,5 1033,7 61 -
01:40 -7,0 -13,3 11,3 NNE 12,9 1033,7 61 -
01:45 -7,1 -13,2 12,9 NNE 14,5 1033,7 62 -
01:50 -7,3 -13,3 12,9 NNE 14,5 1033,7 62 -
01:55 -7,3 -13,6 9,7 NNE 14,5 1034,1 61 -
02:00 -7,5 -13,7 8,0 North 11,3 1034,1 61 -
02:05 -7,7 -13,7 4,8 North 9,7 1034,1 62 -
02:10 -7,7 -13,7 4,8 North 6,4 1034,1 62 -
02:15 -7,7 -13,7 3,2 North 6,4 1034,1 62 -
02:20 -7,8 -13,8 1,6 North 4,8 1034,1 62 -
02:25 -7,8 -13,8 3,2 North 4,8 1034,4 62 -
02:30 -7,7 -13,7 1,6 North 4,8 1034,4 62 -
02:35 -7,7 -13,7 3,2 North 6,4 1034,4 62 -
02:40 -7,8 -13,8 1,6 North 4,8 1034,4 62 -
02:45 -8,1 -13,9 3,2 North 4,8 1034,4 63 -
02:50 -8,1 -14,1 3,2 North 4,8 1034,4 62 -
02:55 -8,2 -14,0 3,2 North 4,8 1034,8 63 -
03:00 -8,5 -14,4 1,6 North 4,8 1034,8 62 -
03:05 -8,4 -14,2 3,2 North 6,4 1034,8 63 -
03:10 -8,4 -14,4 4,8 NW 8,0 1035,1 62 -
03:15 -8,4 -14,6 8,0 NW 8,0 1035,1 61 -
03:20 -8,4 -14,8 11,3 NNW 12,9 1035,1 60 -
03:25 -8,4 -14,8 11,3 NNW 14,5 1035,1 60 -
03:30 -8,5 -15,1 11,3 NNW 12,9 1035,1 59 -
03:35 -8,6 -15,2 9,7 NNW 12,9 1035,1 59 -
03:40 -8,7 -15,3 8,0 NNW 11,3 1035,1 59 -
03:45 -8,8 -15,2 8,0 NNW 9,7 1035,1 60 -
03:50 -8,7 -15,3 3,2 NNW 8,0 1035,4 59 -
03:55 -8,7 -15,3   Calm 4,8 1035,4 59 -
04:00 -8,9 -15,3   Calm 1,6 1035,4 60 -
04:05 -8,8 -15,3 3,2 North 6,4 1035,4 59 -
04:10 -8,7 -15,5 9,7 North 11,3 1035,8 58 -
04:15 -8,7 -15,5 11,3 North 16,1 1035,4 58 -
04:20 -8,7 -15,5 12,9 NNW 19,3 1035,4 58 -
04:25 -8,7 -15,4 12,9 NNW 19,3 1035,4 58 -
04:30 -8,7 -15,4 12,9 NNW 16,1 1035,4 58 -
04:35 -8,7 -15,5 11,3 North 16,1 1035,4 58 -
04:40 -8,9 -15,7 11,3 NNW 14,5 1035,4 58 -
04:45 -9,1 -15,6 11,3 North 12,9 1035,8 59 -
04:50 -9,2 -15,7 9,7 North 12,9 1035,8 59 -
04:55 -9,4 -16,0 4,8 NNE 11,3 1035,8 59 -
05:00 -9,7 -16,1 3,2 NE 8,0 1035,8 60 -
05:05 -9,9 -16,1 1,6 NE 4,8 1035,8 61 -
05:10 -10,0 -16,1 4,8 NE 6,4 1035,8 61 -
05:15 -10,2 -16,1 4,8 NE 8,0 1036,1 62 -
05:20 -10,4 -16,3 4,8 NE 8,0 1036,1 62 -
05:25 -10,7 -16,3 4,8 NE 8,0 1036,5 63 -
05:30 -10,9 -16,3 3,2 NE 6,4 1036,5 64 -
05:35 -10,9 -16,6 4,8 NE 9,7 1036,5 63 -
05:40 -11,1 -16,7 8,0 NE 11,3 1036,5 63 -
05:45 -11,2 -16,8 8,0 NE 11,3 1036,5 63 -
05:50 -11,3 -16,9 8,0 NE 12,9 1036,5 63 -
05:55 -11,4 -17,2 8,0 NE 8,0 1036,5 62 -
06:00 -11,5 -17,2 9,7 NNE 11,3 1036,5 63 -
06:05 -11,7 -17,5 11,3 NNE 12,9 1036,5 62 -
06:10 -11,7 -17,4 11,3 North 12,9 1036,5 63 -
06:15 -11,8 -17,4 11,3 North 14,5 1036,5 63 -
06:20 -12,0 -17,8 9,7 North 12,9 1036,8 62 -
06:25 -12,2 -17,9 9,7 North 11,3 1036,8 62 -
06:30 -12,3 -18,1 8,0 North 11,3 1037,1 62 -
06:35 -12,4 -18,2 11,3 NNE 12,9 1037,1 62 -
06:40 -12,4 -18,2 9,7 North 12,9 1037,1 62 -
06:45 -12,5 -18,3 12,9 North 16,1 1037,1 62 -
06:50 -12,5 -18,3 11,3 North 16,1 1037,1 62 -
06:55 -12,5 -18,1 11,3 North 14,5 1037,1 63 -
07:00 -12,5 -18,1 11,3 North 14,5 1037,5 63 -
07:05 -12,5 -18,3 11,3 North 16,1 1037,5 62 -
07:10 -12,4 -18,2 11,3 North 14,5 1037,5 62 -
07:15 -12,4 -18,2 9,7 North 14,5 1037,5 62 -
07:20 -12,4 -18,2 9,7 North 12,9 1037,8 62 -
07:25 -12,5 -18,3 9,7 North 12,9 1037,8 62 -
07:30 -12,6 -18,4 9,7 North 11,3 1037,8 62 -
07:35 -12,7 -18,4 11,3 North 14,5 1037,8 62 -
07:40 -12,7 -18,4 9,7 North 14,5 1037,8 62 -
07:45 -12,7 -18,5 11,3 North 12,9 1037,8 62 -
07:50 -12,8 -18,6 9,7 NNE 12,9 1037,8 62 -
07:55 -12,8 -18,6 9,7 North 12,9 1038,1 62 -
08:00 -12,9 -18,7 8,0 North 11,3 1038,1 62 -
08:05 -12,9 -18,7 4,8 NNE 8,0 1038,1 62 -
08:10 -12,9 -18,7 4,8 NNE 8,0 1038,5 62 -
08:15 -12,9 -18,7 8,0 NNE 8,0 1038,1 62 -
08:20 -12,9 -18,7 9,7 North 12,9 1038,1 62 -
08:25 -12,8 -18,8 8,0 NNE 11,3 1038,5 61 -
08:30 -12,8 -18,8 9,7 NNE 11,3 1038,5 61 -
08:35 -12,8 -18,8 11,3 NNE 16,1 1038,5 61 -
08:40 -12,8 -18,7 11,3 NNE 16,1 1038,8 61 -
08:45 -12,7 -18,7 11,3 NNE 14,5 1038,8 61 -
08:50 -12,7 -18,6 9,7 North 14,5 1038,8 61 -
08:55 -12,7 -18,6 9,7 NNE 14,5 1039,2 61 -
09:00 -12,6 -18,8 9,7 NNE 14,5 1039,2 60 -
09:05 -12,7 -18,8 12,9 NNE 16,1 1039,2 60 -
09:10 -12,5 -18,9 9,7 NNE 14,5 1039,2 59 -
09:15 -12,5 -19,1 14,5 NNE 19,3 1039,2 58 -
09:20 -12,4 -18,8 12,9 NNE 19,3 1039,2 59 -
09:25 -12,4 -19,0 16,1 North 20,9 1039,2 58 -
09:30 -12,4 -18,8 12,9 NNE 19,3 1039,2 59 -
09:35 -12,3 -18,7 9,7 NNE 19,3 1039,2 59 -
09:40 -12,1 -18,5 19,3 North 24,1 1039,5 59 -
09:45 -12,1 -18,9 14,5 North 24,1 1039,5 57 -
09:50 -11,9 -18,8 16,1 North 22,5 1039,5 57 -
09:55 -11,9 -18,9 16,1 North 22,5 1039,5 56 -
10:00 -11,8 -18,8 16,1 North 20,9 1039,5 56 -
10:05 -11,6 -18,4 12,9 North 20,9 1039,5 57 -
10:10 -11,5 -18,3 11,3 North 16,1 1039,5 57 -
10:15 -11,5 -18,5 12,9 North 19,3 1039,5 56 -
10:20 -11,3 -18,4 14,5 North 20,9 1039,5 56 -
10:25 -11,2 -18,0 12,9 North 20,9 1039,8 57 -
10:30 -11,1 -18,4 19,3 North 27,4 1039,8 55 -
10:35 -10,8 -18,3 25,9 NNW 23,3 1039,8 54 -
10:40 -10,7 -18,4 22,5 NNW 27,4 1039,8 53 -
10:45 -10,7 -18,4 19,3 NNW 27,4 1039,8 53 -
10:50 -10,6 -18,3 20,9 NNW 32,2 1040,2 53 -
10:55 -10,4 -18,2 24,1 North 29,0 1040,2 53 -
11:00 -10,5 -18,5 22,5 NNW 32,2 1040,2 52 -
11:05 -10,5 -18,2 19,3 NNW 32,2 1040,5 53 -
11:10 -10,5 -18,4 22,5 NNW 32,2 1040,5 52 -
11:15 -10,5 -18,5 20,9 NNW 27,4 1040,5 52 -
11:20 -10,1 -17,4 14,5 NNW 25,7 1040,5 55 -
11:25 -10,2 -17,9 16,1 NNW 24,1 1040,5 53 -
11:30 -10,3 -18,3 19,3 NNW 22,5 1040,5 52 -
11:35 -10,2 -17,9 14,5 NNW 22,5 1040,5 53 -
11:40 -10,1 -17,6 12,9 NNW 22,5 1040,5 54 -
11:45 -10,1 -17,9 14,5 NNW 22,5 1040,5 53 -
11:50 -10,0 -18,0 16,1 NNW 25,7 1040,5 52 -
11:55 -10,1 -18,3 19,3 NNW 27,4 1040,5 51 -
12:00 -10,0 -18,2 20,9 NNW 24,1 1040,5 51 -
12:05 -9,9 -17,9 16,1 NNW 24,1 1040,5 52 -
12:10 -9,8 -17,8 16,1 NNW 22,5 1040,5 52 -
12:15 -9,6 -17,3 12,9 NNW 22,5 1040,2 53 -
12:20 -9,4 -17,3 12,9 NNW 24,1 1040,5 53 -
12:25 -9,5 -17,6 16,1 NNW 22,5 1040,5 52 -
12:30 -9,4 -17,4 11,3 NNW 19,3 1040,5 52 -
12:35 -9,4 -17,7 12,9 NNW 22,5 1040,5 51 -
12:40 -9,2 -17,1 14,5 NNW 20,9 1040,5 53 -
12:45 -9,3 -17,1 11,3 NNW 20,9 1040,5 53 -
12:50 -9,1 -17,4 12,9 NW 20,9 1040,2 51 -
12:55 -9,0 -17,1 11,3 NNW 19,3 1040,2 52 -
13:00 -8,9 -17,1 11,3 NNW 19,3 1040,2 52 -
13:05 -8,7 -16,6 14,5 NNW 20,9 1040,2 53 -
13:10 -8,3 -16,5 14,5 NW 19,3 1039,8 52 -
13:15 -8,5 -16,8 14,5 NNW 22,5 1039,8 51 -
13:20 -8,6 -16,7 11,3 NNW 22,5 1039,8 52 -
13:25 -8,6 -16,9 12,9 NW 20,9 1039,5 51 -
13:30 -8,4 -16,8 12,9 NNW 19,3 1039,5 51 -
13:35 -8,5 -16,6 14,5 NNW 19,3 1039,5 52 -
13:40 -8,3 -16,2 11,3 NNW 19,3 1039,2 53 -
13:45 -8,2 -16,1 11,3 NW 19,3 1039,2 53 -
13:50 -8,2 -16,3 11,3 NW 19,3 1039,2 52 -
13:55 -8,2 -16,6 14,5 NNW 20,9 1039,2 51 -
14:00 -8,2 -16,3 12,9 NNW 19,3 1039,2 52 -
14:05 -7,9 -16,6 19,3 NNW 24,1 1038,8 50 -
14:10 -8,1 -16,2 11,3 NNW 24,1 1038,8 52 -
14:15 -8,1 -16,2 11,3 NNW 16,1 1038,8 52 -
14:20 -7,8 -15,8 11,3 NW 16,1 1038,8 53 -
14:25 -7,8 -15,7 12,9 NW 16,1 1038,8 53 -
14:30 -7,8 -15,7 9,7 NW 16,1 1038,5 53 -
14:35 -7,7 -15,9 9,7 NW 14,5 1038,5 52 -
14:40 -7,7 -15,9 9,7 NW 16,1 1038,5 52 -
14:45 -7,7 -15,9 9,7 WNW 16,1 1038,5 52 -
14:50 -7,6 -16,0 9,7 WNW 17,7 1038,5 51 -
14:55 -7,7 -16,1 11,3 WNW 14,5 1038,5 51 -
15:00 -7,8 -16,2 9,7 NW 16,1 1038,5 51 -
15:05 -7,6 -15,5 11,3 NW 16,1 1038,5 53 -
15:10 -7,7 -15,8 9,7 NW 16,1 1038,5 52 -
15:15 -7,6 -16,0 8,0 NW 12,9 1038,1 51 -
15:20 -7,4 -15,9 9,7 NNW 12,9 1038,1 51 -
15:25 -7,4 -15,9 8,0 NNW 12,9 1038,1 51 -
15:30 -7,3 -15,5 3,2 NNW 11,3 1038,1 52 -
15:35 -7,1 -15,8 9,7 NNW 11,3 1038,1 50 -
15:40 -7,2 -15,7 11,3 NNW 12,9 1038,1 51 -
15:45 -6,9 -15,4 9,7 NNW 12,9 1038,1 51 -
15:50 -7,1 -16,0 11,3 NNW 14,5 1038,1 49 -
15:55 -7,1 -15,8 11,3 NNW 16,1 1038,1 50 -
16:00 -7,2 -15,8 12,9 NNW 16,1 1038,1 50 -
16:05 -7,1 -15,6 4,8 NNW 12,9 1038,1 51 -
16:10 -6,8 -15,3 8,0 NNW 9,7 1038,5 51 -
16:15 -6,9 -15,6 8,0 NNW 11,3 1038,5 50 -
16:20 -6,8 -15,0 8,0 NNW 11,3 1038,1 52 -
16:25 -6,9 -15,4 9,7 North 11,3 1038,1 51 -
16:30 -7,0 -15,4 8,0 NNW 14,5 1038,5 51 -
16:35 -7,1 -15,7 8,0 NNW 11,3 1038,5 50 -
16:40 -7,0 -15,2 8,0 NNW 11,3 1038,5 52 -
16:45 -7,1 -15,5 4,8 NNW 11,3 1038,5 51 -
16:50 -7,1 -15,3 3,2 North 8,0 1038,5 52 -
16:55 -7,2 -15,6 8,0 North 9,7 1038,1 51 -
17:00 -7,3 -15,5 8,0 NNW 9,7 1038,1 52 -
17:05 -7,3 -15,5 3,2 NNW 9,7 1038,1 52 -
17:10 -7,4 -15,3 3,2 North 6,4 1038,1 53 -
17:15 -7,4 -15,2 3,2 North 6,4 1038,1 54 -
17:20 -7,6 -15,3 9,7 North 11,3 1038,5 54 -
17:25 -7,7 -15,4 8,0 North 11,3 1038,1 54 -
17:30 -7,8 -15,5 8,0 North 8,0 1038,5 54 -
17:35 -7,8 -15,6 8,0 North 8,0 1038,5 54 -
17:40 -7,9 -15,6 4,8 North 9,7 1038,5 54 -
17:45 -8,0 -15,4 4,8 North 6,4 1038,5 55 -
17:50 -8,1 -15,6 4,8 North 9,7 1038,8 55 -
17:55 -8,2 -15,7 8,0 North 9,7 1038,8 55 -
18:00 -8,5 -15,5 4,8 North 8,0 1038,8 57 -
18:05 -8,5 -15,7 8,0 North 9,7 1038,8 56 -
18:10 -8,6 -15,8 8,0 NNE 8,0 1038,8 56 -
18:15 -8,7 -15,8 8,0 NNE 9,7 1038,8 56 -
18:20 -8,8 -16,0 8,0 NNE 9,7 1038,8 56 -
18:25 -8,8 -16,1 9,7 NNE 11,3 1038,8 56 -
18:30 -8,9 -15,9 8,0 NNE 11,3 1038,8 57 -
18:35 -9,0 -16,0 8,0 NNE 9,7 1039,2 57 -
18:40 -9,2 -15,9 8,0 NNE 9,7 1039,2 58 -
18:45 -9,3 -16,1 4,8 NNE 9,7 1038,8 58 -
18:50 -9,5 -16,2 9,7 NE 9,7 1038,8 58 -
18:55 -9,6 -16,1 8,0 NE 9,7 1039,2 59 -
19:00 -9,6 -16,3 8,0 NE 9,7 1039,2 58 -
19:05 -9,6 -16,2 8,0 ENE 11,3 1039,2 59 -
19:10 -9,7 -16,2 3,2 ENE 8,0 1039,2 59 -
19:15 -9,5 -16,1 4,8 ENE 6,4 1039,2 59 -
19:20 -9,3 -16,1 8,0 ENE 8,0 1039,2 58 -

Download your copy of this data-set  here

Our weather-data as stored at Weather Underground. Script developed by Jim McMurry. Adapted for the template by Leuven-Template.eu